Time;durP1;ratioP1;P1;durP2;ratioP2;P2;SDS_P1;SDS_P2;PMS_P1;PMS_P2;Temp;Humidity;BMP_temperature;BMP_pressure;BME280_temperature;BME280_humidity;BME280_pressure;Samples;Min_cycle;Max_cycle;Signal;HPM_P1;HPM_P2
2023/12/01 00:02:36;;;;;;;15.23;7.80;;;;;;;-0.87;100.00;100177.78;6276974;28;20052;-70
2023/12/01 00:05:38;;;;;;;13.82;6.57;;;;;;;-0.93;100.00;100177.06;6277566;28;20056;-70
2023/12/01 00:08:41;;;;;;;15.30;6.53;;;;;;;-0.98;100.00;100184.00;6277097;28;20072;-70
2023/12/01 00:11:42;;;;;;;14.95;5.50;;;;;;;-0.97;100.00;100183.97;6269017;28;20048;-70
2023/12/01 00:14:44;;;;;;;15.77;6.57;;;;;;;-0.98;100.00;100184.00;6277164;28;20053;-70
2023/12/01 00:17:46;;;;;;;15.60;7.45;;;;;;;-0.98;100.00;100189.16;6276465;28;20060;-70
2023/12/01 00:20:47;;;;;;;18.90;6.90;;;;;;;-0.99;100.00;100187.47;6282081;28;20052;-70
2023/12/01 00:23:50;;;;;;;13.50;6.28;;;;;;;-0.99;100.00;100190.06;6283550;28;20059;-70
2023/12/01 00:26:51;;;;;;;18.77;7.22;;;;;;;-0.99;100.00;100187.47;6271335;28;20049;-70
2023/12/01 00:29:53;;;;;;;16.00;6.95;;;;;;;-1.07;100.00;100182.41;6276683;28;20060;-70
2023/12/01 00:32:54;;;;;;;17.48;7.53;;;;;;;-1.06;100.00;100189.28;6276225;28;20338;-70
2023/12/01 00:35:55;;;;;;;17.45;7.07;;;;;;;-1.00;100.00;100188.31;6278032;28;20053;-70
2023/12/01 00:38:58;;;;;;;18.55;7.07;;;;;;;-1.00;100.00;100196.06;6270229;28;20056;-70
2023/12/01 00:42:00;;;;;;;17.95;8.20;;;;;;;-0.99;100.00;100198.63;6276345;28;20041;-70
2023/12/01 00:45:02;;;;;;;19.65;7.18;;;;;;;-0.96;100.00;100196.00;6276439;28;20052;-70
2023/12/01 00:48:03;;;;;;;17.40;6.22;;;;;;;-0.88;100.00;100199.31;6276511;28;20540;-70
2023/12/01 00:51:05;;;;;;;15.82;6.18;;;;;;;-0.84;100.00;100193.22;6276305;28;20136;-70
2023/12/01 00:54:08;;;;;;;16.38;7.00;;;;;;;-0.77;100.00;100191.41;6276053;28;20068;-70
2023/12/01 00:57:09;;;;;;;15.10;5.97;;;;;;;-0.74;100.00;100196.50;6276051;28;20049;-70
2023/12/01 01:00:11;;;;;;;10.73;5.38;;;;;;;-0.67;100.00;100198.13;6276057;28;20060;-70
2023/12/01 01:03:13;;;;;;;13.23;5.82;;;;;;;-0.66;100.00;100196.41;6267464;28;20057;-70
2023/12/01 01:06:14;;;;;;;14.52;6.88;;;;;;;-0.74;100.00;100196.50;6275856;28;20056;-70
2023/12/01 01:09:17;;;;;;;16.95;6.78;;;;;;;-0.72;100.00;100199.94;6269341;28;20073;-70
2023/12/01 01:12:18;;;;;;;13.85;6.57;;;;;;;-0.69;100.00;100199.00;6275704;28;20044;-70
2023/12/01 01:15:20;;;;;;;12.18;6.32;;;;;;;-0.68;100.00;100204.16;6275638;28;20422;-71
2023/12/01 01:18:22;;;;;;;16.13;6.80;;;;;;;-0.64;100.00;100198.06;6275617;28;20064;-71
2023/12/01 01:21:24;;;;;;;13.60;5.57;;;;;;;-0.72;100.00;100199.94;6275528;28;20061;-70
2023/12/01 01:24:26;;;;;;;16.98;7.38;;;;;;;-0.81;100.00;100203.50;6275388;28;20132;-71
2023/12/01 01:27:28;;;;;;;16.88;6.95;;;;;;;-0.77;100.00;100215.47;6275634;28;20377;-70
2023/12/01 01:30:29;;;;;;;16.88;7.00;;;;;;;-0.72;100.00;100212.84;6274523;28;20044;-70
2023/12/01 01:33:31;;;;;;;16.27;7.25;;;;;;;-0.72;100.00;100219.72;6274962;28;20468;-70
2023/12/01 01:36:33;;;;;;;11.25;5.65;;;;;;;-0.74;100.00;100211.13;6275125;28;20453;-70
2023/12/01 01:39:35;;;;;;;12.05;6.25;;;;;;;-0.74;100.00;100218.88;6275490;28;20056;-70
2023/12/01 01:42:37;;;;;;;18.45;6.88;;;;;;;-0.74;100.00;100216.31;6274882;28;20048;-70
2023/12/01 01:45:38;;;;;;;15.23;6.38;;;;;;;-0.73;100.00;100223.16;6275455;28;20048;-70
2023/12/01 01:48:41;;;;;;;17.30;6.00;;;;;;;-0.74;100.00;100221.47;6275337;28;20071;-71
2023/12/01 01:51:43;;;;;;;22.17;7.38;;;;;;;-0.81;100.00;100225.88;6274946;28;20353;-70
2023/12/01 01:54:45;;;;;;;17.58;7.03;;;;;;;-0.81;100.00;100225.88;6275142;28;20045;-70
2023/12/01 01:57:48;;;;;;;11.18;5.85;;;;;;;-0.77;100.00;100240.44;6274987;28;20052;-71
2023/12/01 02:00:50;;;;;;;18.67;7.15;;;;;;;-0.73;100.00;100236.06;6275080;28;20041;-70
2023/12/01 02:03:52;;;;;;;15.45;6.25;;;;;;;-0.71;100.00;100234.31;6275092;28;20533;-70
2023/12/01 02:06:53;;;;;;;10.05;5.43;;;;;;;-0.75;100.00;100236.09;6274792;28;20041;-70
2023/12/01 02:09:56;;;;;;;14.30;6.10;;;;;;;-0.73;100.00;100231.75;6275216;28;20438;-70
2023/12/01 02:12:57;;;;;;;13.80;6.47;;;;;;;-0.76;100.00;100231.81;6274926;28;20041;-70
2023/12/01 02:16:00;;;;;;;13.77;5.38;;;;;;;-0.73;100.00;100242.06;6275137;28;20076;-70
2023/12/01 02:19:02;;;;;;;12.02;5.65;;;;;;;-0.80;100.00;100241.31;6275082;28;20132;-70
2023/12/01 02:22:05;;;;;;;13.25;5.60;;;;;;;-0.91;100.00;100244.91;6280316;28;20037;-70
2023/12/01 02:25:07;;;;;;;14.25;5.65;;;;;;;-0.90;100.00;100249.22;6267001;28;20449;-70
2023/12/01 02:28:08;;;;;;;13.98;6.07;;;;;;;-0.87;100.00;100256.91;6276486;28;20049;-71
2023/12/01 02:31:09;;;;;;;14.60;6.20;;;;;;;-0.81;100.00;100251.66;6266134;28;20053;-70
2023/12/01 02:34:10;;;;;;;14.45;6.50;;;;;;;-0.97;100.00;100258.75;6297677;22;20060;-70
2023/12/01 02:37:13;;;;;;;14.70;5.97;;;;;;;-0.95;100.00;100254.44;6281176;28;20360;-70
2023/12/01 02:40:15;;;;;;;18.52;5.20;;;;;;;-0.91;100.00;100257.81;6258029;28;20184;-71
2023/12/01 02:43:18;;;;;;;18.95;6.47;;;;;;;-0.87;100.00;100254.31;6253229;28;20447;-70
2023/12/01 02:46:22;;;;;;;16.80;5.82;;;;;;;-0.90;100.00;100260.41;6254298;28;20434;-71
2023/12/01 02:49:24;;;;;;;14.18;6.88;;;;;;;-0.90;100.00;100259.53;6254614;28;20054;-71
2023/12/01 02:52:27;;;;;;;16.30;6.63;;;;;;;-0.89;100.00;100256.94;6254290;28;20583;-71
2023/12/01 02:55:28;;;;;;;22.48;6.53;;;;;;;-0.89;100.00;100261.25;6253868;28;20050;-71
2023/12/01 02:58:30;;;;;;;18.35;7.15;;;;;;;-0.99;100.00;100263.09;6254258;28;20350;-71
2023/12/01 03:01:31;;;;;;;16.70;6.97;;;;;;;-1.01;100.00;100262.25;6257278;28;20056;-70
2023/12/01 03:04:32;;;;;;;14.93;6.57;;;;;;;-1.19;100.00;100268.50;6270315;28;20053;-70
2023/12/01 03:07:36;;;;;;;13.98;6.05;;;;;;;-1.28;100.00;100261.75;6278569;28;20082;-70
2023/12/01 03:10:38;;;;;;;12.52;5.32;;;;;;;-1.29;100.00;100265.19;6278710;28;20055;-71
2023/12/01 03:13:39;;;;;;;12.40;5.65;;;;;;;-1.29;100.00;100260.03;6278462;28;20053;-71
2023/12/01 03:16:41;;;;;;;16.13;6.05;;;;;;;-1.25;100.00;100266.03;6270510;28;20361;-71
2023/12/01 03:19:45;;;;;;;11.40;5.97;;;;;;;-1.19;100.00;100270.25;6278582;28;20048;-71
2023/12/01 03:22:50;;;;;;;11.07;5.22;;;;;;;-1.23;100.00;100266.00;6278036;28;20072;-71
2023/12/01 03:25:51;;;;;;;16.60;5.55;;;;;;;-1.19;100.00;100265.94;6278329;28;20139;-71
2023/12/01 03:28:52;;;;;;;13.30;7.07;;;;;;;-1.25;100.00;100271.19;6278112;28;20349;-71
2023/12/01 03:31:54;;;;;;;17.08;6.28;;;;;;;-1.23;100.00;100277.16;6277874;28;20045;-71
2023/12/01 03:34:55;;;;;;;17.70;6.50;;;;;;;-1.22;100.00;100273.72;6277947;28;20087;-71
2023/12/01 03:37:58;;;;;;;13.50;5.85;;;;;;;-1.22;100.00;100273.72;6277958;28;20049;-71
2023/12/01 03:41:00;;;;;;;19.00;7.28;;;;;;;-1.16;100.00;100275.38;6277628;28;20331;-70
2023/12/01 03:44:01;;;;;;;12.27;6.10;;;;;;;-1.27;100.00;100278.09;6277544;28;20051;-70
2023/12/01 03:47:03;;;;;;;16.00;6.57;;;;;;;-1.29;100.00;100282.41;6277620;28;20064;-70
2023/12/01 03:50:05;;;;;;;15.38;6.20;;;;;;;-1.24;100.00;100274.59;6286562;28;20068;-70
2023/12/01 03:53:07;;;;;;;14.55;6.35;;;;;;;-1.18;100.00;100269.34;6272353;28;20449;-71
2023/12/01 03:56:09;;;;;;;14.55;6.90;;;;;;;-1.20;100.00;100276.28;6279505;28;20109;-70
2023/12/01 03:59:11;;;;;;;18.55;6.72;;;;;;;-1.16;100.00;100285.69;6277135;28;20052;-72
2023/12/01 04:02:12;;;;;;;14.00;6.32;;;;;;;-1.17;100.00;100282.25;6264844;28;20445;-72
2023/12/01 04:05:17;;;;;;;18.70;6.57;;;;;;;-1.07;100.00;100280.41;6275141;28;20053;-72
2023/12/01 04:08:20;;;;;;;15.60;6.47;;;;;;;-1.05;100.00;100284.66;6277262;28;20056;-72
2023/12/01 04:11:21;;;;;;;20.52;7.10;;;;;;;-1.13;100.00;100283.06;6268597;28;20372;-72
2023/12/01 04:14:22;;;;;;;12.75;5.85;;;;;;;-1.28;100.00;100286.66;6276968;28;20055;-72
2023/12/01 04:17:24;;;;;;;15.02;6.55;;;;;;;-1.11;100.00;100289.88;6276965;28;20049;-72
2023/12/01 04:20:27;;;;;;;18.88;7.50;;;;;;;-1.13;100.00;100277.91;6277165;28;20068;-72
2023/12/01 04:23:29;;;;;;;14.40;6.65;;;;;;;-1.12;100.00;100284.78;6275100;28;20049;-72
2023/12/01 04:26:30;;;;;;;22.85;7.15;;;;;;;-1.10;100.00;100288.16;6270541;28;20365;-73
2023/12/01 04:29:32;;;;;;;12.40;5.40;;;;;;;-1.08;100.00;100283.84;6276630;28;20045;-72
2023/12/01 04:32:33;;;;;;;15.35;6.07;;;;;;;-1.08;100.00;100287.28;6276668;28;20052;-72
2023/12/01 04:35:37;;;;;;;14.57;6.72;;;;;;;-1.18;100.00;100287.41;6276201;28;20052;-72
2023/12/01 04:38:40;;;;;;;13.75;6.10;;;;;;;-1.12;100.00;100280.47;6276204;28;20049;-72
2023/12/01 04:41:41;;;;;;;13.77;5.78;;;;;;;-1.07;100.00;100288.97;6276293;28;20045;-72
2023/12/01 04:44:42;;;;;;;12.80;5.78;;;;;;;-1.15;100.00;100283.06;6275993;28;20052;-72
2023/12/01 04:47:45;;;;;;;9.90;5.80;;;;;;;-1.18;100.00;100288.28;6276522;28;20053;-72
2023/12/01 04:50:48;;;;;;;14.70;6.70;;;;;;;-1.20;100.00;100292.59;6276267;28;20441;-72
2023/12/01 04:53:51;;;;;;;9.95;5.18;;;;;;;-1.17;100.00;100302.03;6276003;28;20052;-72
2023/12/01 04:56:52;;;;;;;16.02;6.93;;;;;;;-1.22;100.00;100302.09;6276043;28;20056;-72
2023/12/01 04:59:56;;;;;;;13.90;6.18;;;;;;;-1.21;100.00;100300.34;6275672;28;20064;-72
2023/12/01 05:02:59;;;;;;;14.00;5.50;;;;;;;-1.30;100.00;100303.91;6273422;28;20055;-72
2023/12/01 05:06:01;;;;;;;18.40;7.05;;;;;;;-1.42;100.00;100302.31;6275609;28;20437;-72
2023/12/01 05:09:16;;;;;;;12.27;5.53;;;;;;;-1.41;100.00;100304.03;6275769;28;20053;-72
2023/12/01 05:12:17;;;;;;;20.10;7.00;;;;;;;-1.32;100.00;100305.63;6275984;28;20045;-72
2023/12/01 05:15:20;;;;;;;18.80;7.75;;;;;;;-1.31;100.00;100309.94;6275486;28;20441;-72
2023/12/01 05:18:22;;;;;;;16.55;7.05;;;;;;;-1.25;100.00;100317.56;6275780;28;20335;-72
2023/12/01 05:21:24;;;;;;;19.08;7.43;;;;;;;-1.29;100.00;100316.75;6275596;28;20413;-74
2023/12/01 05:24:29;;;;;;;16.00;7.05;;;;;;;-1.30;100.00;100333.09;6275449;28;20057;-70
2023/12/01 05:27:30;;;;;;;24.50;9.32;;;;;;;-1.33;100.00;100327.13;6275561;28;20430;-71
2023/12/01 05:30:34;;;;;;;28.98;10.63;;;;;;;-1.27;100.00;100337.38;6266444;28;20060;-71
2023/12/01 05:33:38;;;;;;;23.33;8.90;;;;;;;-1.25;100.00;100330.47;6261463;28;20053;-77
2023/12/01 05:36:39;;;;;;;17.80;7.40;;;;;;;-1.23;100.00;100326.13;6263626;28;20090;-76
2023/12/01 05:39:42;;;;;;;27.33;8.18;;;;;;;-1.32;100.00;100331.41;6261812;28;20058;-71
2023/12/01 05:42:44;;;;;;;21.50;8.30;;;;;;;-1.37;100.00;100330.59;6262514;28;20044;-71
2023/12/01 05:45:46;;;;;;;16.80;6.60;;;;;;;-1.38;100.00;100332.31;6260882;28;20468;-70
2023/12/01 05:48:47;;;;;;;22.27;7.32;;;;;;;-1.33;100.00;100350.31;6265206;28;20060;-72
2023/12/01 05:51:49;;;;;;;12.68;5.03;;;;;;;-1.29;100.00;100336.53;6263539;28;20047;-72
2023/12/01 05:54:52;;;;;;;15.95;6.75;;;;;;;-1.29;100.00;100346.84;6263233;28;20148;-76
2023/12/01 05:57:55;;;;;;;18.73;8.43;;;;;;;-1.22;100.00;100356.22;6264144;28;20041;-77
2023/12/01 06:00:57;;;;;;;24.13;9.85;;;;;;;-1.24;100.00;100350.22;6263389;28;20057;-77
2023/12/01 06:03:59;;;;;;;20.10;7.45;;;;;;;-1.18;100.00;100346.69;6263155;28;20045;-78
2023/12/01 06:07:00;;;;;;;24.83;9.48;;;;;;;-1.22;100.00;100358.78;6265965;28;20049;-76
2023/12/01 06:10:05;;;;;;;18.50;8.10;;;;;;;-1.28;100.00;100375.16;6263286;28;20052;-77
2023/12/01 06:13:07;;;;;;;19.40;7.90;;;;;;;-1.30;100.00;100366.59;6264604;28;20052;-78
2023/12/01 06:16:08;;;;;;;25.38;9.27;;;;;;;-1.37;100.00;100377.84;6265835;28;20045;-78
2023/12/01 06:19:10;;;;;;;12.20;6.05;;;;;;;-1.32;100.00;100373.50;6288779;28;20044;-77
2023/12/01 06:22:11;;;;;;;15.65;6.47;;;;;;;-1.24;100.00;100372.56;6279433;28;20041;-77
2023/12/01 06:25:14;;;;;;;15.80;6.35;;;;;;;-1.34;100.00;100380.38;6266927;28;20049;-76
2023/12/01 06:28:15;;;;;;;18.02;7.78;;;;;;;-1.34;100.00;100377.81;6255054;28;20137;-76
2023/12/01 06:31:17;;;;;;;16.52;6.97;;;;;;;-1.33;100.00;100386.41;6254780;28;20094;-76
2023/12/01 06:34:18;;;;;;;17.23;6.40;;;;;;;-1.29;100.00;100373.47;6254409;28;20046;-74
2023/12/01 06:37:20;;;;;;;16.92;7.15;;;;;;;-1.36;100.00;100379.56;6254700;28;20050;-76
2023/12/01 06:40:22;;;;;;;21.05;7.47;;;;;;;-1.46;100.00;100383.09;6254627;28;20061;-76
2023/12/01 06:43:24;;;;;;;22.73;6.53;;;;;;;-1.35;100.00;100391.56;6262242;28;20053;-76
2023/12/01 06:46:25;;;;;;;20.27;7.13;;;;;;;-1.47;100.00;100388.25;6264872;28;20068;-71
2023/12/01 06:49:26;;;;;;;19.73;6.63;;;;;;;-1.37;100.00;100395.03;6267148;28;20048;-70
2023/12/01 06:52:28;;;;;;;19.70;7.00;;;;;;;-1.44;100.00;100391.66;6276848;28;20045;-70
2023/12/01 06:55:30;;;;;;;17.33;6.50;;;;;;;-1.47;100.00;100399.41;6278791;28;20045;-72
2023/12/01 06:58:32;;;;;;;22.40;7.65;;;;;;;-1.43;100.00;100397.69;6279067;28;20445;-71
2023/12/01 07:01:35;;;;;;;18.38;6.88;;;;;;;-1.48;100.00;100404.59;6277783;28;20060;-71
2023/12/01 07:04:37;;;;;;;21.65;8.65;;;;;;;-1.45;100.00;100407.13;6267751;28;20475;-71
2023/12/01 07:07:38;;;;;;;15.43;6.78;;;;;;;-1.32;100.00;100409.59;6273117;28;20055;-71
2023/12/01 07:10:41;;;;;;;17.23;7.20;;;;;;;-1.25;100.00;100418.09;6270526;28;20041;-71
2023/12/01 07:13:47;;;;;;;18.05;7.03;;;;;;;-1.19;100.00;100420.59;6278309;28;20041;-71
2023/12/01 07:16:48;;;;;;;17.00;7.25;;;;;;;-1.47;100.00;100427.75;6264841;28;20038;-71
2023/12/01 07:19:49;;;;;;;16.35;6.78;;;;;;;-1.59;100.00;100427.88;6266875;28;20448;-71
2023/12/01 07:22:52;;;;;;;18.50;6.85;;;;;;;-1.47;100.00;100434.66;6268533;28;20047;-70
2023/12/01 07:25:55;;;;;;;16.80;6.95;;;;;;;-1.34;100.00;100431.09;6265300;28;20057;-71
2023/12/01 07:28:57;;;;;;;22.13;7.50;;;;;;;-1.31;100.00;100428.50;6264897;28;20049;-70
2023/12/01 07:31:59;;;;;;;20.10;7.43;;;;;;;-1.31;100.00;100428.50;6265844;28;20064;-70
2023/12/01 07:35:00;;;;;;;14.77;6.68;;;;;;;-1.39;100.00;100432.84;6263920;28;20128;-72
2023/12/01 07:38:04;;;;;;;19.73;7.72;;;;;;;-1.32;100.00;100434.50;6273260;28;20049;-70
2023/12/01 07:41:07;;;;;;;19.30;7.50;;;;;;;-1.40;100.00;100439.75;6264556;28;20049;-70
2023/12/01 07:44:09;;;;;;;13.73;5.30;;;;;;;-1.33;100.00;100448.25;6268011;28;20049;-70
2023/12/01 07:47:11;;;;;;;17.15;7.18;;;;;;;-1.34;100.00;100449.13;6266558;28;20052;-70
2023/12/01 07:50:14;;;;;;;21.73;7.13;;;;;;;-1.26;100.00;100461.94;6273110;28;20049;-70
2023/12/01 07:53:16;;;;;;;19.05;6.38;;;;;;;-1.26;100.00;100467.09;6269522;28;20507;-73
2023/12/01 07:56:23;;;;;;;22.75;8.48;;;;;;;-1.21;100.00;100465.34;6268958;28;20072;-74
2023/12/01 07:59:24;;;;;;;19.63;7.88;;;;;;;-1.23;100.00;100470.50;6278931;28;20053;-74
2023/12/01 08:02:25;;;;;;;17.55;7.85;;;;;;;-1.24;100.00;100473.09;6265469;28;20425;-74
2023/12/01 08:05:27;;;;;;;19.15;6.40;;;;;;;-1.29;100.00;100467.97;6266405;28;20460;-74
2023/12/01 08:08:28;;;;;;;23.50;8.90;;;;;;;-1.22;100.00;100477.38;6272432;28;20057;-74
2023/12/01 08:11:30;;;;;;;16.35;6.35;;;;;;;-1.29;100.00;100473.13;6262531;28;20053;-73
2023/12/01 08:14:32;;;;;;;17.80;6.55;;;;;;;-1.24;100.00;100480.81;6266377;28;20072;-73
2023/12/01 08:17:33;;;;;;;17.52;7.30;;;;;;;-1.20;100.00;100483.34;6275224;28;20045;-72
2023/12/01 08:20:35;;;;;;;21.27;7.75;;;;;;;-1.17;100.00;100485.06;6263751;28;20457;-73
2023/12/01 08:23:36;;;;;;;18.23;7.30;;;;;;;-1.16;100.00;100490.19;6275203;28;20052;-72
2023/12/01 08:26:39;;;;;;;19.48;8.57;;;;;;;-1.13;100.00;100490.19;6266648;28;20052;-72
2023/12/01 08:29:40;;;;;;;20.02;7.97;;;;;;;-1.14;100.00;100488.44;6260214;28;20386;-72
2023/12/01 08:32:42;;;;;;;18.92;7.70;;;;;;;-1.16;100.00;100492.78;6271165;28;20052;-72
2023/12/01 08:35:43;;;;;;;21.83;7.53;;;;;;;-1.28;100.00;100485.16;6276421;28;20049;-73
2023/12/01 08:38:45;;;;;;;20.77;7.72;;;;;;;-1.12;100.00;100486.72;6270675;28;20041;-73
2023/12/01 08:41:51;;;;;;;21.65;7.22;;;;;;;-1.18;100.00;100491.06;6265684;28;20052;-74
2023/12/01 08:44:53;;;;;;;25.13;8.63;;;;;;;-1.25;100.00;100487.72;6267888;28;20037;-74
2023/12/01 08:47:54;;;;;;;19.15;7.85;;;;;;;-1.27;100.00;100492.03;6269090;28;20601;-72
2023/12/01 08:50:56;;;;;;;25.80;9.35;;;;;;;-1.17;100.00;100497.97;6276381;28;20045;-76
2023/12/01 08:53:57;;;;;;;22.52;8.55;;;;;;;-1.15;100.00;100502.22;6273287;28;20041;-73
2023/12/01 08:57:00;;;;;;;23.95;8.95;;;;;;;-1.17;100.00;100505.69;6270317;28;20052;-73
2023/12/01 09:00:01;;;;;;;23.08;8.18;;;;;;;-1.16;100.00;100504.81;6263916;28;20350;-74
2023/12/01 09:03:03;;;;;;;24.23;8.30;;;;;;;-1.42;100.00;100508.47;6268716;28;20373;-73
2023/12/01 09:06:05;;;;;;;15.68;7.00;;;;;;;-1.41;100.00;100509.31;6267269;28;20049;-76
2023/12/01 09:09:06;;;;;;;18.35;7.35;;;;;;;-1.41;100.00;100515.34;6275740;28;20049;-73
2023/12/01 09:12:09;;;;;;;21.08;7.57;;;;;;;-1.36;100.00;100508.44;6275783;28;20059;-73
2023/12/01 09:15:11;;;;;;;16.33;7.45;;;;;;;-1.37;100.00;100513.59;6275301;28;20055;-75
2023/12/01 09:18:12;;;;;;;19.33;7.22;;;;;;;-1.37;100.00;100518.72;6267402;28;20511;-73
2023/12/01 09:21:14;;;;;;;21.90;7.75;;;;;;;-1.39;100.00;100516.19;6275547;28;20136;-75
2023/12/01 09:24:15;;;;;;;18.80;7.82;;;;;;;-1.39;100.00;100523.06;6275472;28;20048;-74
2023/12/01 09:27:19;;;;;;;19.83;7.93;;;;;;;-1.34;100.00;100519.56;6275512;28;20056;-75
2023/12/01 09:30:20;;;;;;;16.65;8.07;;;;;;;-1.18;100.00;100522.00;6275614;28;20053;-74
2023/12/01 09:33:22;;;;;;;22.73;8.48;;;;;;;-1.08;100.00;100523.66;6275275;28;20056;-74
2023/12/01 09:36:23;;;;;;;19.58;8.75;;;;;;;-1.09;100.00;100529.66;6274109;28;20085;-73
2023/12/01 09:39:25;;;;;;;17.17;8.20;;;;;;;-1.10;100.00;100528.81;6274535;28;20132;-73
2023/12/01 09:42:28;;;;;;;18.05;8.18;;;;;;;-1.18;100.00;100524.59;6267677;28;20060;-72
2023/12/01 09:45:30;;;;;;;20.10;8.07;;;;;;;-1.24;100.00;100535.81;6274821;28;20057;-72
2023/12/01 09:48:34;;;;;;;25.13;8.13;;;;;;;-1.18;100.00;100528.03;6270927;28;20049;-74
2023/12/01 09:51:37;;;;;;;20.73;9.23;;;;;;;-1.31;100.00;100529.00;6266110;28;20056;-74
2023/12/01 09:54:38;;;;;;;22.92;8.15;;;;;;;-1.23;100.00;100536.66;6274840;28;20049;-74
2023/12/01 09:57:42;;;;;;;22.98;8.57;;;;;;;-1.19;100.00;100540.94;6275330;28;20060;-74
2023/12/01 10:00:46;;;;;;;21.00;8.82;;;;;;;-1.39;100.00;100538.53;6274823;28;20049;-72
2023/12/01 10:03:48;;;;;;;22.35;9.88;;;;;;;-1.37;100.00;100537.63;6274768;28;20487;-73
2023/12/01 10:06:49;;;;;;;20.48;8.48;;;;;;;-1.44;100.00;100542.88;6274764;28;20060;-72
2023/12/01 10:09:51;;;;;;;24.73;10.13;;;;;;;-1.48;100.00;100546.31;6274872;28;20349;-73
2023/12/01 10:12:56;;;;;;;20.80;8.18;;;;;;;-1.51;100.00;100547.19;6274686;28;20048;-79
2023/12/01 10:15:58;;;;;;;26.10;9.18;;;;;;;-1.47;100.00;100540.31;6273056;28;20124;-79
2023/12/01 10:19:04;;;;;;;23.65;8.90;;;;;;;-1.57;100.00;100549.81;6261063;28;20155;-76
2023/12/01 10:22:07;;;;;;;20.10;7.03;;;;;;;-1.49;100.00;100550.63;6261857;28;20130;-76
2023/12/01 10:25:12;;;;;;;25.60;7.75;;;;;;;-1.50;100.00;100551.47;6274653;28;20053;-77
2023/12/01 10:28:15;;;;;;;21.48;8.40;;;;;;;-1.49;100.00;100545.47;6274757;28;20425;-77
2023/12/01 10:31:16;;;;;;;19.25;7.65;;;;;;;-1.51;100.00;100559.22;6267235;28;20053;-76
2023/12/01 10:34:18;;;;;;;20.80;7.63;;;;;;;-1.44;100.00;100548.88;6273885;28;20045;-77
2023/12/01 10:37:21;;;;;;;23.90;8.65;;;;;;;-1.53;100.00;100551.50;6274505;28;20056;-75
2023/12/01 10:40:22;;;;;;;16.77;7.15;;;;;;;-1.59;100.00;100546.38;6274300;28;20331;-76
2023/12/01 10:43:26;;;;;;;19.02;6.30;;;;;;;-1.52;100.00;100542.91;6274259;28;20041;-68
2023/12/01 10:46:28;;;;;;;16.20;7.70;;;;;;;-1.48;100.00;100549.75;6274256;28;20052;-75
2023/12/01 10:49:31;;;;;;;19.73;8.10;;;;;;;-1.43;100.00;100544.56;6274606;28;20045;-76
2023/12/01 10:52:36;;;;;;;18.10;8.20;;;;;;;-1.45;100.00;100551.44;6272728;28;20052;-75
2023/12/01 10:55:38;;;;;;;19.73;8.18;;;;;;;-1.45;100.00;100552.31;6268095;28;20069;-75
2023/12/01 10:58:41;;;;;;;18.13;7.47;;;;;;;-1.62;100.00;100551.56;6274705;28;20052;-74
2023/12/01 11:01:43;;;;;;;17.05;7.32;;;;;;;-1.75;100.00;100553.38;6272333;28;20472;-74
2023/12/01 11:04:46;;;;;;;16.35;7.38;;;;;;;-1.71;100.00;100549.06;6273159;28;20046;-74
2023/12/01 11:08:03;;;;;;;21.13;8.45;;;;;;;-1.55;100.00;100553.22;6265738;28;20048;-74
2023/12/01 11:11:15;;;;;;;22.08;8.68;;;;;;;-1.48;100.00;100552.34;6263246;28;20369;-74
2023/12/01 11:14:20;;;;;;;16.83;7.35;;;;;;;-1.47;100.00;100537.72;6269866;28;20045;-75
2023/12/01 11:17:22;;;;;;;19.40;7.40;;;;;;;-1.35;100.00;100546.22;6278301;28;20048;-76
2023/12/01 11:20:33;;;;;;;19.30;8.02;;;;;;;-1.47;100.00;100545.44;6277682;28;20056;-74
2023/12/01 11:23:35;;;;;;;17.75;8.00;;;;;;;-1.37;100.00;100536.78;6274104;28;20448;-75
2023/12/01 11:26:37;;;;;;;21.10;7.90;;;;;;;-1.40;100.00;100532.53;6268969;28;20658;-77
2023/12/01 11:29:58;;;;;;;23.90;8.70;;;;;;;-1.43;100.00;100524.81;6268334;28;20393;-76
2023/12/01 11:32:59;;;;;;;16.95;7.50;;;;;;;-1.48;100.00;100525.72;6269583;28;20053;-76
2023/12/01 11:36:26;;;;;;;16.92;7.85;;;;;;;-1.42;100.00;100512.78;6270434;28;20060;-75
2023/12/01 11:39:29;;;;;;;20.60;9.02;;;;;;;-1.31;100.00;100516.13;6257706;28;20041;-75
2023/12/01 11:42:31;;;;;;;25.23;9.00;;;;;;;-1.27;100.00;100517.81;6269586;28;20045;-75
2023/12/01 11:45:39;;;;;;;22.25;8.70;;;;;;;-1.33;100.00;100513.53;6268705;28;20045;-74
2023/12/01 11:48:41;;;;;;;19.50;8.40;;;;;;;-1.52;100.00;100521.44;6267579;28;20458;-75
2023/12/01 11:51:44;;;;;;;22.20;8.68;;;;;;;-1.80;100.00;100517.34;6257317;28;20353;-74
2023/12/01 11:54:47;;;;;;;16.80;8.70;;;;;;;-1.78;100.00;100519.91;6269010;28;20136;-73
2023/12/01 11:57:53;;;;;;;22.00;9.45;;;;;;;-1.55;100.00;100512.84;6277475;28;20056;-74
2023/12/01 12:00:56;;;;;;;22.45;8.90;;;;;;;-1.62;100.00;100516.38;6277486;28;20044;-74
2023/12/01 12:03:58;;;;;;;80.60;26.30;;;;;;;-1.59;100.00;100512.88;6272028;28;20045;-74
2023/12/01 12:07:01;;;;;;;19.55;8.77;;;;;;;-1.79;100.00;100515.63;6264730;28;20056;-74
2023/12/01 12:10:02;;;;;;;20.00;8.75;;;;;;;-1.55;100.00;100510.28;6274340;28;20191;-74
2023/12/01 12:13:03;;;;;;;18.13;7.72;;;;;;;-1.39;100.00;100512.75;6273416;28;20045;-74
2023/12/01 12:16:07;;;;;;;19.90;8.50;;;;;;;-1.73;100.00;100515.56;6268888;28;20056;-74
2023/12/01 12:19:09;;;;;;;18.67;8.43;;;;;;;-1.64;100.00;100515.50;6270938;28;20041;-74
2023/12/01 12:22:13;;;;;;;23.20;8.43;;;;;;;-1.52;100.00;100519.72;6268602;28;20318;-73
2023/12/01 12:25:14;;;;;;;24.67;8.90;;;;;;;-1.60;100.00;100516.34;6268479;28;20055;-73
2023/12/01 12:28:16;;;;;;;14.93;7.53;;;;;;;-1.52;100.00;100514.56;6270069;28;20053;-73
2023/12/01 12:31:19;;;;;;;17.85;7.90;;;;;;;-1.57;100.00;100514.59;6268125;28;20049;-73
2023/12/01 12:34:21;;;;;;;19.30;7.72;;;;;;;-1.85;100.00;100511.38;6268036;28;20045;-73
2023/12/01 12:37:23;;;;;;;19.00;8.50;;;;;;;-1.90;100.00;100512.28;6266166;28;20425;-73
2023/12/01 12:40:24;;;;;;;26.00;8.73;;;;;;;-1.60;100.00;100511.19;6265723;28;20049;-73
2023/12/01 12:43:25;;;;;;;20.58;8.48;;;;;;;-1.46;100.00;100516.22;6268476;28;20059;-74
2023/12/01 12:46:29;;;;;;;23.70;9.35;;;;;;;-1.34;100.00;100524.72;6260633;28;20045;-74
2023/12/01 12:49:32;;;;;;;20.65;8.43;;;;;;;-1.55;100.00;100514.56;6258486;28;20052;-73
2023/12/01 12:52:34;;;;;;;23.58;7.75;;;;;;;-1.26;100.00;100521.25;6259854;28;20045;-74
2023/12/01 12:55:35;;;;;;;21.10;8.80;;;;;;;-1.19;100.00;100521.16;6268987;28;20349;-74
2023/12/01 12:58:37;;;;;;;22.08;8.02;;;;;;;-1.41;100.00;100519.63;6267352;28;20049;-73
2023/12/01 13:01:39;;;;;;;14.98;7.70;;;;;;;-1.61;100.00;100515.50;6273643;28;20052;-74
2023/12/01 13:04:41;;;;;;;20.35;7.30;;;;;;;-1.64;100.00;100512.06;6271887;28;20049;-73
2023/12/01 13:07:43;;;;;;;15.88;6.28;;;;;;;-1.45;100.00;100521.41;6268785;28;20064;-74
2023/12/01 13:10:44;;;;;;;20.27;8.05;;;;;;;-1.34;100.00;100517.00;6263688;28;20106;-74
2023/12/01 13:13:45;;;;;;;26.67;6.95;;;;;;;-1.32;100.00;100524.69;6269777;28;20060;-74
2023/12/01 13:16:48;;;;;;;12.82;6.15;;;;;;;-1.35;100.00;100528.19;6262278;28;20048;-74
2023/12/01 13:19:49;;;;;;;12.20;6.28;;;;;;;-1.37;100.00;100514.44;6266833;28;20052;-74
2023/12/01 13:22:51;;;;;;;16.25;7.57;;;;;;;-1.32;100.00;100524.69;6266879;28;20052;-74
2023/12/01 13:25:52;;;;;;;15.63;5.95;;;;;;;-1.31;100.00;100535.03;6269040;28;20048;-74
2023/12/01 13:28:53;;;;;;;13.02;5.10;;;;;;;-1.30;100.00;100526.41;6267047;28;20045;-73
2023/12/01 13:31:57;;;;;;;12.02;5.28;;;;;;;-1.14;100.00;100545.16;6267186;28;20059;-74
2023/12/01 13:34:58;;;;;;;13.20;5.40;;;;;;;-1.18;100.00;100545.22;6266968;28;20041;-74
2023/12/01 13:38:01;;;;;;;16.55;6.70;;;;;;;-1.15;100.00;100543.47;6264105;28;20327;-73
2023/12/01 13:41:02;;;;;;;16.42;6.45;;;;;;;-1.21;100.00;100543.53;6265735;28;20052;-74
2023/12/01 13:44:05;;;;;;;15.00;6.70;;;;;;;-1.21;100.00;100542.69;6271137;28;20481;-74
2023/12/01 13:47:08;;;;;;;16.17;6.38;;;;;;;-1.24;100.00;100543.53;6270241;28;20049;-74
2023/12/01 13:50:09;;;;;;;21.95;6.70;;;;;;;-1.37;100.00;100542.78;6266682;28;20053;-74